createdAt,value
2022-08-25T00:00:30.204Z,16.50
2022-08-25T00:02:59.546Z,16.42
2022-08-25T00:05:32.206Z,12.43
2022-08-25T00:08:01.749Z,16.38
2022-08-25T00:10:39.389Z,17.05
2022-08-25T00:13:10.557Z,17.20
2022-08-25T00:15:39.901Z,15.85
2022-08-25T00:18:19.537Z,13.57
2022-08-25T00:20:48.916Z,18.65
2022-08-25T00:23:18.395Z,17.27
2022-08-25T00:25:47.882Z,17.08
2022-08-25T00:28:18.636Z,17.50
2022-08-25T00:30:47.648Z,21.02
2022-08-25T00:33:16.151Z,16.95
2022-08-25T00:35:44.671Z,14.88
2022-08-25T00:38:14.170Z,16.88
2022-08-25T00:40:43.660Z,16.00
2022-08-25T00:43:14.186Z,20.48
2022-08-25T00:45:44.199Z,17.33
2022-08-25T00:48:13.133Z,15.25
2022-08-25T00:50:42.109Z,13.02
2022-08-25T00:53:13.964Z,19.23
2022-08-25T00:55:49.307Z,16.70
2022-08-25T00:58:21.682Z,18.27
2022-08-25T01:00:54.320Z,12.85
2022-08-25T01:03:25.247Z,17.10
2022-08-25T01:06:06.049Z,15.65
2022-08-25T01:08:35.613Z,13.88
2022-08-25T01:11:09.185Z,20.63
2022-08-25T01:13:44.496Z,18.27
2022-08-25T01:16:22.341Z,19.10
2022-08-25T01:18:54.081Z,15.13
2022-08-25T01:21:26.563Z,17.00
2022-08-25T01:23:56.597Z,17.80
2022-08-25T01:26:30.710Z,18.63
2022-08-25T01:29:19.744Z,18.25
2022-08-25T01:31:49.436Z,20.25
2022-08-25T01:34:22.773Z,20.13
2022-08-25T01:36:53.453Z,17.15
2022-08-25T01:39:22.070Z,19.33
2022-08-25T01:42:19.877Z,21.65
2022-08-25T01:44:49.875Z,16.85
2022-08-25T01:47:18.567Z,17.95
2022-08-25T01:49:46.989Z,20.67
2022-08-25T01:52:24.972Z,22.40
2022-08-25T01:54:54.555Z,22.40
2022-08-25T01:57:24.591Z,22.70
2022-08-25T01:59:54.120Z,18.05
2022-08-25T02:02:24.085Z,20.35
2022-08-25T02:04:55.092Z,19.23
2022-08-25T02:07:27.690Z,22.95
2022-08-25T02:09:56.497Z,19.52
2022-08-25T02:12:32.357Z,20.45
2022-08-25T02:15:01.972Z,21.50
2022-08-25T02:17:31.584Z,17.30
2022-08-25T02:20:00.139Z,24.33
2022-08-25T02:22:31.912Z,15.18
2022-08-25T02:25:02.591Z,17.65
2022-08-25T02:27:32.765Z,23.85
2022-08-25T02:30:04.470Z,22.20
2022-08-25T02:32:33.203Z,15.85
2022-08-25T02:35:04.673Z,22.48
2022-08-25T02:37:37.088Z,21.73
2022-08-25T02:40:07.112Z,18.40
2022-08-25T02:42:36.135Z,20.90
2022-08-25T02:45:08.020Z,24.98
2022-08-25T02:47:37.639Z,24.48
2022-08-25T02:50:06.576Z,23.48
2022-08-25T02:52:43.057Z,17.48
2022-08-25T02:55:14.511Z,20.70
2022-08-25T02:57:43.874Z,23.50
2022-08-25T03:00:15.310Z,25.30
2022-08-25T03:02:45.308Z,21.63
2022-08-25T03:05:16.050Z,20.13
2022-08-25T03:07:45.960Z,24.58
2022-08-25T03:10:17.402Z,19.65
2022-08-25T03:12:47.957Z,25.50
2022-08-25T03:15:18.455Z,17.42
2022-08-25T03:17:50.594Z,18.65
2022-08-25T03:20:19.963Z,17.50
2022-08-25T03:22:50.226Z,20.60
2022-08-25T03:25:33.392Z,20.40
2022-08-25T03:28:02.500Z,14.23
2022-08-25T03:30:31.632Z,27.27
2022-08-25T03:33:01.150Z,19.17
2022-08-25T03:35:31.030Z,17.67
2022-08-25T03:38:01.729Z,20.17
2022-08-25T03:40:30.451Z,20.17
2022-08-25T03:42:59.209Z,16.13
2022-08-25T03:45:28.033Z,20.08
2022-08-25T03:47:56.899Z,22.02
2022-08-25T03:50:26.025Z,22.98
2022-08-25T03:52:57.835Z,19.58
2022-08-25T03:55:28.951Z,22.83
2022-08-25T03:57:59.811Z,26.20
2022-08-25T04:00:31.663Z,16.20
2022-08-25T04:03:00.381Z,24.38
2022-08-25T04:05:29.046Z,24.70
2022-08-25T04:07:57.975Z,20.85
2022-08-25T04:10:27.893Z,23.35
2022-08-25T04:12:59.140Z,24.90
2022-08-25T04:15:30.053Z,20.45
2022-08-25T04:18:00.489Z,22.92
2022-08-25T04:20:29.078Z,36.20
2022-08-25T04:23:01.656Z,22.60
2022-08-25T04:25:31.957Z,21.75
2022-08-25T04:28:00.668Z,20.90
2022-08-25T04:30:29.580Z,20.10
2022-08-25T04:32:58.000Z,21.90
2022-08-25T04:35:26.402Z,23.52
2022-08-25T04:37:55.987Z,20.75
2022-08-25T04:40:29.093Z,21.70
2022-08-25T04:43:07.905Z,16.40
2022-08-25T04:45:39.494Z,21.15
2022-08-25T04:48:08.527Z,19.00
2022-08-25T04:50:40.971Z,17.15
2022-08-25T04:53:10.678Z,18.45
2022-08-25T04:55:43.034Z,19.00
2022-08-25T04:58:16.702Z,23.02
2022-08-25T05:00:46.948Z,23.52
2022-08-25T05:03:17.869Z,21.92
2022-08-25T05:05:46.809Z,18.98
2022-08-25T05:08:16.349Z,19.77
2022-08-25T05:10:45.400Z,15.63
2022-08-25T05:13:16.556Z,20.33
2022-08-25T05:15:53.719Z,16.25
2022-08-25T05:18:32.790Z,20.55
2022-08-25T05:21:04.518Z,25.80
2022-08-25T05:23:33.712Z,25.73
2022-08-25T05:26:06.663Z,21.35
2022-08-25T05:28:41.029Z,19.55
2022-08-25T05:31:14.444Z,20.73
2022-08-25T05:33:50.037Z,20.52
2022-08-25T05:36:21.079Z,22.48
2022-08-25T05:38:50.173Z,19.35
2022-08-25T05:41:22.758Z,23.70
2022-08-25T05:43:54.826Z,16.88
2022-08-25T05:46:24.423Z,18.75
2022-08-25T05:48:53.727Z,18.10
2022-08-25T05:51:25.710Z,19.38
2022-08-25T05:53:54.298Z,24.13
2022-08-25T05:56:23.089Z,20.35
2022-08-25T05:58:51.630Z,17.75
2022-08-25T06:01:48.032Z,20.38
2022-08-25T06:04:19.646Z,21.85
2022-08-25T06:06:49.107Z,19.45
2022-08-25T06:09:17.944Z,16.40
2022-08-25T06:11:46.615Z,16.13
2022-08-25T06:14:17.654Z,18.67
2022-08-25T06:16:49.169Z,14.45
2022-08-25T06:19:17.785Z,18.35
2022-08-25T06:21:46.491Z,19.58
2022-08-25T06:24:15.900Z,21.10
2022-08-25T06:26:45.298Z,19.45
2022-08-25T06:29:15.973Z,17.80
2022-08-25T06:31:46.811Z,19.10
2022-08-25T06:34:15.750Z,22.27
2022-08-25T06:36:45.847Z,20.88
2022-08-25T06:39:19.153Z,19.35
2022-08-25T06:41:58.930Z,17.05
2022-08-25T06:44:28.489Z,17.63
2022-08-25T06:46:59.879Z,19.08
2022-08-25T06:49:31.851Z,12.40
2022-08-25T06:52:01.712Z,20.35
2022-08-25T06:54:30.364Z,18.20
2022-08-25T06:56:58.702Z,20.15
2022-08-25T06:59:32.039Z,12.80
2022-08-25T07:02:03.166Z,12.18
2022-08-25T07:04:32.239Z,18.15
2022-08-25T07:07:01.018Z,13.80
2022-08-25T07:09:30.641Z,15.98
2022-08-25T07:11:59.612Z,13.27
2022-08-25T07:14:29.069Z,11.95
2022-08-25T07:16:58.178Z,12.43
2022-08-25T07:19:29.823Z,13.48
2022-08-25T07:21:58.275Z,17.80
2022-08-25T07:24:26.601Z,13.00
2022-08-25T07:26:58.252Z,13.25
2022-08-25T07:29:32.955Z,13.73
2022-08-25T07:32:02.676Z,10.60
2022-08-25T07:34:52.380Z,15.27
2022-08-25T07:37:48.388Z,16.10
2022-08-25T07:40:15.479Z,11.98
2022-08-25T07:42:46.716Z,13.85
2022-08-25T07:45:20.452Z,13.85
2022-08-25T07:47:51.643Z,10.77
2022-08-25T07:50:22.741Z,11.15
2022-08-25T07:52:55.314Z,11.73
2022-08-25T07:55:27.622Z,19.33
2022-08-25T07:57:57.606Z,9.38
2022-08-25T08:00:28.124Z,16.23
2022-08-25T08:02:57.616Z,18.33
2022-08-25T08:05:31.143Z,21.70
2022-08-25T08:07:59.878Z,13.88
2022-08-25T08:10:53.880Z,12.35
2022-08-25T08:13:20.244Z,16.90
2022-08-25T08:15:49.999Z,14.75
2022-08-25T08:18:18.980Z,15.35
2022-08-25T08:20:51.002Z,15.48
2022-08-25T08:23:19.630Z,17.83
2022-08-25T08:25:48.459Z,14.23
2022-08-25T08:28:16.768Z,10.57
2022-08-25T08:30:52.885Z,18.13
2022-08-25T08:33:25.676Z,10.63
2022-08-25T08:36:05.109Z,17.98
2022-08-25T08:38:34.943Z,14.63
2022-08-25T08:41:54.323Z,18.02
2022-08-25T08:44:33.103Z,16.33
2022-08-25T08:47:09.127Z,18.00
2022-08-25T08:49:47.988Z,13.75
2022-08-25T08:52:20.939Z,15.43
2022-08-25T08:55:05.510Z,17.58
2022-08-25T08:57:43.112Z,16.15
2022-08-25T09:00:13.067Z,13.98
2022-08-25T09:02:51.345Z,18.85
2022-08-25T09:05:23.461Z,16.27
2022-08-25T09:07:58.563Z,14.43
2022-08-25T09:10:36.137Z,18.67
2022-08-25T09:13:15.334Z,13.23
2022-08-25T09:16:10.251Z,16.27
2022-08-25T09:18:57.948Z,17.80
2022-08-25T09:21:35.113Z,17.33
2022-08-25T09:24:20.461Z,16.52
2022-08-25T09:26:58.077Z,18.30
2022-08-25T09:29:37.597Z,16.83
2022-08-25T09:32:09.024Z,16.48
2022-08-25T09:34:39.134Z,14.25
2022-08-25T09:37:07.642Z,17.40
2022-08-25T09:39:39.262Z,10.32
2022-08-25T09:42:08.208Z,17.75
2022-08-25T09:44:43.932Z,12.95
2022-08-25T09:47:24.134Z,13.88
2022-08-25T09:50:00.532Z,15.55
2022-08-25T09:52:37.601Z,10.75
2022-08-25T09:55:29.054Z,13.63
2022-08-25T09:58:00.910Z,15.07
2022-08-25T10:00:33.857Z,13.18
2022-08-25T10:03:08.480Z,15.75
2022-08-25T10:05:42.861Z,10.98
2022-08-25T10:08:16.253Z,13.57
2022-08-25T10:10:57.953Z,10.30
2022-08-25T10:13:37.907Z,9.73
2022-08-25T10:16:24.153Z,13.38
2022-08-25T10:19:08.708Z,13.40
2022-08-25T10:21:41.329Z,8.00
2022-08-25T10:24:12.824Z,9.23
2022-08-25T10:26:57.030Z,8.30
2022-08-25T10:29:41.737Z,8.55
2022-08-25T10:32:18.178Z,12.55
2022-08-25T10:34:51.615Z,10.55
2022-08-25T10:37:37.362Z,12.18
2022-08-25T10:40:17.515Z,12.38
2022-08-25T10:42:58.282Z,9.70
2022-08-25T10:45:48.136Z,9.25
2022-08-25T10:48:31.876Z,7.63
2022-08-25T10:51:09.513Z,8.27
2022-08-25T10:53:50.922Z,8.95
2022-08-25T10:56:23.900Z,8.23
2022-08-25T10:59:25.595Z,11.13
2022-08-25T11:02:46.515Z,7.93
2022-08-25T11:05:25.720Z,8.05
2022-08-25T11:08:00.262Z,9.43
2022-08-25T11:10:39.208Z,12.10
2022-08-25T11:13:14.295Z,10.20
2022-08-25T11:16:15.450Z,9.13
2022-08-25T11:18:51.732Z,10.75
2022-08-25T11:21:25.751Z,10.80
2022-08-25T11:24:00.596Z,12.00
2022-08-25T11:26:37.231Z,9.02
2022-08-25T11:29:14.179Z,11.10
2022-08-25T11:31:53.003Z,6.85
2022-08-25T11:34:25.482Z,8.18
2022-08-25T11:37:01.392Z,5.70
2022-08-25T11:39:49.593Z,9.38
2022-08-25T11:42:31.644Z,8.23
2022-08-25T11:45:09.739Z,8.48
2022-08-25T11:47:53.014Z,12.52
2022-08-25T11:50:35.202Z,12.38
2022-08-25T11:53:28.120Z,12.95
2022-08-25T11:56:02.742Z,13.10
2022-08-25T11:58:42.868Z,10.10
2022-08-25T12:01:34.044Z,7.53
2022-08-25T12:04:33.103Z,6.50
2022-08-25T12:07:25.795Z,8.48
2022-08-25T12:10:21.636Z,6.78
2022-08-25T12:13:01.919Z,11.07
2022-08-25T12:15:55.557Z,8.20
2022-08-25T12:18:46.376Z,7.10
2022-08-25T12:21:31.837Z,9.40
2022-08-25T12:24:12.427Z,11.13
2022-08-25T12:26:51.822Z,7.20
2022-08-25T12:29:33.854Z,6.32
2022-08-25T12:32:21.673Z,8.15
2022-08-25T12:35:11.946Z,9.57
2022-08-25T12:37:58.005Z,10.32
2022-08-25T12:40:32.244Z,9.88
2022-08-25T12:43:12.290Z,10.43
2022-08-25T12:45:46.330Z,12.00
2022-08-25T12:48:43.982Z,10.48
2022-08-25T12:51:20.423Z,7.35
2022-08-25T12:53:53.029Z,8.20
2022-08-25T12:56:29.159Z,12.50
2022-08-25T12:59:12.619Z,9.65
2022-08-25T13:01:57.423Z,9.20
2022-08-25T13:05:05.877Z,8.35
2022-08-25T13:07:51.342Z,12.82
2022-08-25T13:10:36.103Z,7.30
2022-08-25T13:13:13.562Z,7.88
2022-08-25T13:15:46.923Z,8.88
2022-08-25T13:18:30.618Z,10.10
2022-08-25T13:21:10.563Z,9.48
2022-08-25T13:23:43.860Z,9.23
2022-08-25T13:26:17.250Z,7.07
2022-08-25T13:28:58.206Z,5.15
2022-08-25T13:31:30.353Z,5.90
2022-08-25T13:34:02.708Z,6.22
2022-08-25T13:37:00.604Z,7.55
2022-08-25T13:39:53.139Z,4.53
2022-08-25T13:42:27.463Z,5.53
2022-08-25T13:44:59.543Z,8.98
2022-08-25T13:47:45.379Z,6.82
2022-08-25T13:50:33.141Z,4.97
2022-08-25T13:53:05.839Z,9.68
2022-08-25T13:55:51.575Z,4.70
2022-08-25T13:58:38.651Z,6.72
2022-08-25T14:01:22.419Z,9.10
2022-08-25T14:04:29.727Z,6.57
2022-08-25T14:07:19.576Z,5.10
2022-08-25T14:09:52.248Z,6.35
2022-08-25T14:12:40.147Z,6.30
2022-08-25T14:15:14.134Z,4.63
2022-08-25T14:17:47.917Z,5.03
2022-08-25T14:20:24.005Z,5.85
2022-08-25T14:22:58.250Z,3.67
2022-08-25T14:25:28.357Z,6.75
2022-08-25T14:28:07.502Z,3.85
2022-08-25T14:30:43.274Z,4.45
2022-08-25T14:33:17.408Z,6.43
2022-08-25T14:35:50.183Z,4.28
2022-08-25T14:38:21.705Z,6.22
2022-08-25T14:40:51.158Z,5.82
2022-08-25T14:43:23.724Z,5.85
2022-08-25T14:45:54.648Z,5.10
2022-08-25T14:48:28.631Z,8.50
2022-08-25T14:51:00.231Z,4.18
2022-08-25T14:53:29.504Z,6.18
2022-08-25T14:55:59.011Z,5.35
2022-08-25T14:58:28.040Z,5.65
2022-08-25T15:01:06.524Z,5.93
2022-08-25T15:03:41.678Z,8.85
2022-08-25T15:06:14.724Z,6.53
2022-08-25T15:09:03.251Z,5.45
2022-08-25T15:11:33.037Z,7.22
2022-08-25T15:14:03.852Z,7.82
2022-08-25T15:16:36.651Z,5.60
2022-08-25T15:19:08.641Z,11.55
2022-08-25T15:21:39.826Z,7.38
2022-08-25T15:24:11.473Z,6.13
2022-08-25T15:29:25.702Z,6.05
2022-08-25T15:31:55.863Z,7.32
2022-08-25T15:34:26.019Z,10.43
2022-08-25T15:36:54.703Z,16.63
2022-08-25T15:39:23.031Z,10.68
2022-08-25T15:41:52.599Z,9.20
2022-08-25T15:44:26.207Z,8.88
2022-08-25T15:46:57.803Z,7.85
2022-08-25T15:49:31.457Z,8.07
2022-08-25T15:52:01.947Z,9.60
2022-08-25T15:54:31.407Z,6.05
2022-08-25T15:57:00.526Z,9.93
2022-08-25T15:59:29.778Z,8.68
2022-08-25T16:01:58.533Z,11.43
2022-08-25T16:04:30.682Z,9.73
2022-08-25T16:07:01.462Z,7.72
2022-08-25T16:09:31.416Z,10.80
2022-08-25T16:12:05.382Z,9.32
2022-08-25T16:14:36.918Z,6.38
2022-08-25T16:17:05.963Z,10.00
2022-08-25T16:19:38.192Z,10.55
2022-08-25T16:22:08.825Z,11.50
2022-08-25T16:24:42.038Z,10.80
2022-08-25T16:27:12.161Z,9.85
2022-08-25T16:29:42.157Z,8.18
2022-08-25T16:32:13.464Z,14.55
2022-08-25T16:34:44.591Z,10.18
2022-08-25T16:37:13.797Z,6.60
2022-08-25T16:39:45.804Z,9.68
2022-08-25T16:45:05.514Z,11.15
2022-08-25T16:47:38.729Z,10.40
2022-08-25T16:50:11.162Z,10.35
2022-08-25T16:52:58.328Z,10.68
2022-08-25T16:55:39.426Z,10.98
2022-08-25T16:58:16.049Z,12.73
2022-08-25T17:00:44.870Z,9.88
2022-08-25T17:03:15.715Z,10.88
2022-08-25T17:05:46.757Z,10.20
2022-08-25T17:08:31.009Z,16.25
2022-08-25T17:11:09.040Z,8.23
2022-08-25T17:13:39.311Z,10.82
2022-08-25T17:16:14.666Z,11.07
2022-08-25T17:18:47.550Z,9.48
2022-08-25T17:21:24.324Z,11.02
2022-08-25T17:23:54.689Z,9.50
2022-08-25T17:26:27.951Z,7.80
2022-08-25T17:28:59.574Z,14.13
2022-08-25T17:31:51.662Z,14.40
2022-08-25T17:34:23.023Z,11.90
2022-08-25T17:36:55.144Z,12.18
2022-08-25T17:39:25.360Z,11.77
2022-08-25T17:41:55.557Z,10.38
2022-08-25T17:44:24.088Z,9.43
2022-08-25T17:46:53.228Z,10.15
2022-08-25T17:49:23.093Z,8.52
2022-08-25T17:51:53.294Z,10.68
2022-08-25T17:54:42.265Z,15.93
2022-08-25T17:57:12.706Z,10.52
2022-08-25T17:59:41.581Z,11.00
2022-08-25T18:02:10.523Z,14.38
2022-08-25T18:04:39.848Z,8.40
2022-08-25T18:07:10.589Z,12.68
2022-08-25T18:09:39.520Z,9.38
2022-08-25T18:12:08.482Z,9.30
2022-08-25T18:14:40.790Z,13.15
2022-08-25T18:17:14.536Z,11.13
2022-08-25T18:19:51.045Z,10.48
2022-08-25T18:22:21.669Z,12.82
2022-08-25T18:24:50.079Z,7.82
2022-08-25T18:27:18.733Z,8.88
2022-08-25T18:29:50.538Z,12.15
2022-08-25T18:32:20.870Z,11.05
2022-08-25T18:35:00.711Z,14.38
2022-08-25T18:37:51.362Z,11.55
2022-08-25T18:40:24.252Z,9.02
2022-08-25T18:42:57.496Z,11.02
2022-08-25T18:45:32.895Z,11.82
2022-08-25T18:48:15.645Z,10.48
2022-08-25T18:50:46.686Z,9.88
2022-08-25T18:53:30.322Z,11.30
2022-08-25T18:56:12.665Z,9.57
2022-08-25T18:58:41.264Z,8.80
2022-08-25T19:01:14.480Z,8.32
2022-08-25T19:03:44.961Z,12.73
2022-08-25T19:06:17.446Z,11.18
2022-08-25T19:08:50.183Z,10.43
2022-08-25T19:11:22.332Z,10.35
2022-08-25T19:13:51.387Z,7.70
2022-08-25T19:16:34.824Z,13.75
2022-08-25T19:19:04.414Z,12.30
2022-08-25T19:21:36.165Z,12.18
2022-08-25T19:24:07.129Z,13.30
2022-08-25T19:26:36.145Z,11.85
2022-08-25T19:29:10.654Z,8.93
2022-08-25T19:31:41.471Z,10.88
2022-08-25T19:34:15.698Z,11.93
2022-08-25T19:36:44.225Z,13.75
2022-08-25T19:39:16.575Z,10.50
2022-08-25T19:41:46.839Z,13.35
2022-08-25T19:44:23.170Z,13.27
2022-08-25T19:46:51.752Z,9.57
2022-08-25T19:49:23.189Z,9.07
2022-08-25T19:51:54.617Z,10.35
2022-08-25T19:54:28.714Z,13.32
2022-08-25T19:57:00.601Z,11.77
2022-08-25T19:59:40.403Z,12.85
2022-08-25T20:02:15.396Z,10.85
2022-08-25T20:04:49.622Z,15.60
2022-08-25T20:07:23.751Z,11.25
2022-08-25T20:09:57.114Z,18.08
2022-08-25T20:12:28.499Z,11.65
2022-08-25T20:14:58.184Z,11.48
2022-08-25T20:17:28.658Z,15.63
2022-08-25T20:20:00.306Z,10.93
2022-08-25T20:22:33.511Z,10.80
2022-08-25T20:25:13.583Z,12.65
2022-08-25T20:27:55.337Z,11.65
2022-08-25T20:30:27.389Z,13.90
2022-08-25T20:32:58.382Z,13.38
2022-08-25T20:35:29.518Z,12.20
2022-08-25T20:38:04.753Z,14.00
2022-08-25T20:40:37.074Z,8.15
2022-08-25T20:43:06.646Z,10.50
2022-08-25T20:45:41.746Z,11.43
2022-08-25T20:48:11.512Z,11.60
2022-08-25T20:50:43.695Z,12.77
2022-08-25T20:53:13.541Z,13.13
2022-08-25T20:55:44.910Z,9.70
2022-08-25T20:58:15.227Z,11.90
2022-08-25T21:00:56.372Z,11.95
2022-08-25T21:03:26.970Z,11.10
2022-08-25T21:05:55.470Z,12.43
2022-08-25T21:08:28.667Z,16.60
2022-08-25T21:10:58.909Z,14.43
2022-08-25T21:13:27.891Z,14.20
2022-08-25T21:16:03.943Z,10.43
2022-08-25T21:18:40.507Z,11.13
2022-08-25T21:21:16.855Z,15.57
2022-08-25T21:23:49.441Z,13.10
2022-08-25T21:26:23.598Z,12.32
2022-08-25T21:28:55.486Z,12.25
2022-08-25T21:31:28.737Z,12.45
2022-08-25T21:34:01.132Z,12.65
2022-08-25T21:36:32.377Z,9.27
2022-08-25T21:39:02.883Z,14.57
2022-08-25T21:41:43.021Z,11.73
2022-08-25T21:44:17.065Z,15.80
2022-08-25T21:46:54.128Z,14.60
2022-08-25T21:49:27.471Z,12.65
2022-08-25T21:52:00.988Z,13.13
2022-08-25T21:54:33.804Z,15.07
2022-08-25T21:57:06.293Z,13.35
2022-08-25T21:59:41.027Z,16.90
2022-08-25T22:02:11.572Z,14.10
2022-08-25T22:04:45.058Z,15.13
2022-08-25T22:07:14.323Z,20.23
2022-08-25T22:09:50.736Z,14.07
2022-08-25T22:12:25.938Z,12.30
2022-08-25T22:14:55.264Z,13.63
2022-08-25T22:17:30.540Z,9.90
2022-08-25T22:20:01.817Z,9.02
2022-08-25T22:22:32.775Z,8.02
2022-08-25T22:25:01.364Z,7.40
2022-08-25T22:27:40.666Z,9.98
2022-08-25T22:30:17.572Z,8.20
2022-08-25T22:32:48.175Z,11.73
2022-08-25T22:35:22.281Z,8.80
2022-08-25T22:37:51.237Z,10.18
2022-08-25T22:40:20.269Z,11.73
2022-08-25T22:42:56.559Z,8.43
2022-08-25T22:45:25.913Z,10.40
2022-08-25T22:47:57.896Z,8.60
2022-08-25T22:50:36.281Z,11.10
2022-08-25T22:53:16.989Z,10.93
2022-08-25T22:55:46.311Z,12.32
2022-08-25T22:58:17.346Z,10.95
2022-08-25T23:00:46.708Z,11.18
2022-08-25T23:03:15.474Z,8.02
2022-08-25T23:05:44.332Z,10.77
2022-08-25T23:08:14.840Z,13.07
2022-08-25T23:10:58.552Z,13.68
2022-08-25T23:13:33.968Z,11.85
2022-08-25T23:16:03.179Z,14.05
2022-08-25T23:18:34.474Z,14.38
2022-08-25T23:21:24.351Z,13.63
2022-08-25T23:23:53.313Z,10.95
2022-08-25T23:26:23.488Z,16.10
2022-08-25T23:28:54.222Z,10.73
2022-08-25T23:31:22.963Z,14.90
2022-08-25T23:33:52.523Z,10.88
2022-08-25T23:36:22.179Z,16.80
2022-08-25T23:38:51.801Z,10.52
2022-08-25T23:41:23.501Z,15.20
2022-08-25T23:43:55.912Z,10.30
2022-08-25T23:46:26.292Z,13.07
2022-08-25T23:48:56.159Z,15.98
2022-08-25T23:51:28.217Z,10.73
2022-08-25T23:53:59.270Z,11.13
2022-08-25T23:56:28.688Z,11.93
2022-08-25T23:58:59.247Z,10.43
